createdAt,value
2023-09-09T00:01:57.059Z,80.91
2023-09-09T00:04:30.313Z,81.15
2023-09-09T00:07:04.487Z,81.39
2023-09-09T00:09:39.311Z,81.48
2023-09-09T00:12:12.543Z,81.45
2023-09-09T00:14:45.721Z,81.32
2023-09-09T00:17:18.854Z,81.31
2023-09-09T00:19:52.798Z,81.47
2023-09-09T00:22:26.057Z,81.41
2023-09-09T00:25:03.434Z,81.22
2023-09-09T00:27:36.663Z,81.32
2023-09-09T00:30:10.998Z,81.34
2023-09-09T00:32:44.434Z,81.37
2023-09-09T00:35:17.815Z,81.10
2023-09-09T00:37:51.055Z,81.37
2023-09-09T00:40:25.880Z,81.29
2023-09-09T00:42:59.109Z,81.55
2023-09-09T00:45:33.490Z,81.48
2023-09-09T00:48:07.117Z,81.40
2023-09-09T00:50:40.816Z,81.56
2023-09-09T00:53:14.466Z,81.63
2023-09-09T00:55:49.956Z,81.69
2023-09-09T00:58:25.405Z,81.64
2023-09-09T01:00:58.606Z,81.36
2023-09-09T01:03:32.473Z,81.30
2023-09-09T01:06:06.786Z,81.28
2023-09-09T01:08:40.111Z,81.44
2023-09-09T01:11:14.687Z,81.45
2023-09-09T01:13:48.175Z,81.11
2023-09-09T01:16:21.518Z,81.28
2023-09-09T01:18:55.962Z,81.36
2023-09-09T01:21:32.860Z,81.76
2023-09-09T01:24:07.952Z,81.56
2023-09-09T01:26:41.237Z,81.54
2023-09-09T01:29:15.221Z,81.40
2023-09-09T01:31:48.422Z,81.26
2023-09-09T01:34:21.625Z,81.11
2023-09-09T01:36:54.917Z,80.74
2023-09-09T01:39:29.564Z,81.18
2023-09-09T01:42:03.960Z,81.20
2023-09-09T01:44:39.987Z,81.22
2023-09-09T01:47:14.908Z,81.37
2023-09-09T01:49:48.818Z,81.44
2023-09-09T01:52:24.611Z,81.65
2023-09-09T01:54:59.195Z,81.63
2023-09-09T01:57:32.419Z,81.71
2023-09-09T02:00:11.252Z,81.81
2023-09-09T02:02:47.273Z,81.82
2023-09-09T02:05:23.737Z,81.81
2023-09-09T02:07:56.855Z,82.18
2023-09-09T02:10:31.393Z,82.09
2023-09-09T02:13:05.458Z,82.05
2023-09-09T02:15:38.743Z,82.15
2023-09-09T02:18:12.172Z,82.03
2023-09-09T02:20:48.479Z,81.86
2023-09-09T02:23:21.694Z,81.83
2023-09-09T02:25:57.076Z,81.55
2023-09-09T02:28:31.508Z,81.86
2023-09-09T02:31:04.823Z,81.67
2023-09-09T02:33:38.322Z,81.73
2023-09-09T02:36:11.709Z,81.96
2023-09-09T02:38:45.077Z,81.71
2023-09-09T02:41:19.616Z,81.53
2023-09-09T02:43:52.884Z,81.86
2023-09-09T02:46:26.326Z,81.66
2023-09-09T02:48:59.488Z,81.66
2023-09-09T02:51:32.712Z,81.72
2023-09-09T02:54:06.068Z,81.73
2023-09-09T02:56:40.654Z,81.60
2023-09-09T02:59:13.816Z,81.75
2023-09-09T03:01:47.256Z,81.47
2023-09-09T03:04:21.282Z,81.80
2023-09-09T03:06:54.651Z,82.49
2023-09-09T03:09:28.146Z,82.33
2023-09-09T03:12:04.046Z,82.68
2023-09-09T03:14:37.230Z,82.75
2023-09-09T03:17:10.460Z,82.74
2023-09-09T03:19:43.637Z,82.83
2023-09-09T03:22:19.191Z,82.29
2023-09-09T03:24:53.200Z,82.34
2023-09-09T03:27:27.734Z,81.85
2023-09-09T03:30:01.095Z,82.16
2023-09-09T03:32:34.982Z,82.72
2023-09-09T03:35:11.498Z,83.09
2023-09-09T03:37:44.722Z,83.23
2023-09-09T03:40:18.162Z,82.71
2023-09-09T03:42:52.768Z,82.31
2023-09-09T03:45:26.122Z,82.55
2023-09-09T03:48:02.446Z,82.68
2023-09-09T03:50:35.963Z,82.79
2023-09-09T03:53:09.335Z,82.99
2023-09-09T03:55:42.659Z,82.99
2023-09-09T03:58:17.271Z,83.26
2023-09-09T04:01:07.505Z,83.01
2023-09-09T04:03:42.001Z,82.73
2023-09-09T04:06:20.321Z,82.46
2023-09-09T04:08:57.515Z,82.39
2023-09-09T04:11:31.112Z,82.24
2023-09-09T04:14:06.280Z,82.13
2023-09-09T04:16:39.832Z,82.21
2023-09-09T04:19:13.124Z,82.36
2023-09-09T04:21:46.332Z,82.37
2023-09-09T04:24:19.614Z,82.29
2023-09-09T04:26:53.212Z,82.32
2023-09-09T04:29:27.909Z,82.15
2023-09-09T04:32:01.066Z,82.36
2023-09-09T04:34:34.259Z,82.58
2023-09-09T04:37:08.064Z,82.55
2023-09-09T04:39:41.495Z,82.54
2023-09-09T04:42:16.924Z,82.33
2023-09-09T04:44:51.804Z,82.52
2023-09-09T04:47:25.231Z,82.40
2023-09-09T04:50:00.613Z,82.50
2023-09-09T04:52:33.974Z,82.71
2023-09-09T04:55:07.454Z,82.52
2023-09-09T04:57:41.426Z,82.84
2023-09-09T05:00:17.113Z,82.53
2023-09-09T05:02:50.930Z,82.37
2023-09-09T05:05:24.503Z,82.20
2023-09-09T05:07:57.956Z,82.26
2023-09-09T05:10:34.166Z,82.13
2023-09-09T05:13:08.006Z,82.19
2023-09-09T05:15:42.713Z,81.98
2023-09-09T05:18:16.039Z,82.06
2023-09-09T05:20:49.389Z,81.96
2023-09-09T05:23:23.040Z,81.65
2023-09-09T05:25:56.413Z,81.60
2023-09-09T05:28:29.659Z,81.65
2023-09-09T05:31:08.507Z,81.68
2023-09-09T05:33:42.687Z,81.45
2023-09-09T05:36:16.448Z,81.49
2023-09-09T05:38:49.692Z,81.19
2023-09-09T05:41:23.059Z,81.49
2023-09-09T05:43:56.364Z,81.26
2023-09-09T05:46:31.061Z,81.61
2023-09-09T05:49:04.550Z,81.27
2023-09-09T05:51:38.024Z,81.43
2023-09-09T05:54:11.251Z,80.89
2023-09-09T05:56:44.764Z,80.47
2023-09-09T05:59:18.121Z,80.16
2023-09-09T06:01:53.237Z,79.93
2023-09-09T06:04:26.593Z,79.60
2023-09-09T06:07:00.392Z,79.79
2023-09-09T06:09:34.226Z,79.63
2023-09-09T06:12:08.403Z,78.88
2023-09-09T06:14:41.703Z,78.64
2023-09-09T06:17:16.347Z,78.67
2023-09-09T06:19:49.762Z,78.28
2023-09-09T06:22:22.960Z,77.87
2023-09-09T06:24:56.369Z,77.98
2023-09-09T06:27:33.147Z,77.50
2023-09-09T06:30:07.996Z,77.96
2023-09-09T06:32:42.698Z,77.54
2023-09-09T06:35:16.478Z,76.60
2023-09-09T06:37:49.782Z,76.51
2023-09-09T06:40:24.006Z,76.50
2023-09-09T06:42:57.179Z,76.41
2023-09-09T06:45:30.327Z,76.04
2023-09-09T06:48:08.273Z,75.84
2023-09-09T06:50:41.713Z,75.71
2023-09-09T06:53:16.155Z,75.43
2023-09-09T06:55:50.332Z,75.11
2023-09-09T06:58:23.522Z,74.50
2023-09-09T07:00:56.721Z,74.24
2023-09-09T07:03:31.361Z,74.75
2023-09-09T07:06:04.784Z,74.91
2023-09-09T07:08:40.603Z,75.10
2023-09-09T07:11:13.974Z,74.24
2023-09-09T07:13:47.195Z,74.17
2023-09-09T07:16:20.435Z,73.59
2023-09-09T07:18:54.986Z,73.24
2023-09-09T07:21:28.213Z,73.17
2023-09-09T07:24:01.450Z,72.71
2023-09-09T07:26:34.647Z,72.62
2023-09-09T07:29:07.815Z,72.65
2023-09-09T07:31:41.024Z,72.74
2023-09-09T07:34:15.488Z,72.05
2023-09-09T07:36:52.160Z,72.16
2023-09-09T07:39:28.075Z,71.27
2023-09-09T07:42:01.230Z,71.11
2023-09-09T07:44:34.421Z,70.53
2023-09-09T07:47:08.608Z,70.34
2023-09-09T07:49:43.264Z,69.88
2023-09-09T07:52:16.570Z,69.91
2023-09-09T07:54:50.275Z,68.54
2023-09-09T07:57:23.492Z,67.61
2023-09-09T07:59:56.646Z,67.53
2023-09-09T08:02:29.850Z,65.45
2023-09-09T08:05:04.452Z,62.78
2023-09-09T08:07:37.663Z,60.68
2023-09-09T08:10:13.720Z,59.24
2023-09-09T08:12:47.124Z,58.55
2023-09-09T08:15:29.921Z,56.62
2023-09-09T08:18:11.883Z,56.48
2023-09-09T08:20:46.606Z,55.30
2023-09-09T08:23:20.710Z,55.40
2023-09-09T08:25:53.969Z,55.19
2023-09-09T08:28:27.177Z,53.76
2023-09-09T08:31:00.610Z,53.81
2023-09-09T08:33:33.928Z,53.87
2023-09-09T08:36:08.528Z,53.95
2023-09-09T08:38:41.831Z,53.88
2023-09-09T08:41:26.034Z,53.08
2023-09-09T08:44:12.573Z,52.91
2023-09-09T08:46:45.758Z,53.12
2023-09-09T08:49:24.894Z,53.33
2023-09-09T08:52:05.625Z,53.39
2023-09-09T08:54:39.169Z,53.90
2023-09-09T08:57:12.632Z,52.92
2023-09-09T08:59:49.916Z,52.80
2023-09-09T09:02:23.414Z,54.06
2023-09-09T09:04:57.245Z,52.58
2023-09-09T09:07:33.672Z,52.56
2023-09-09T09:10:07.642Z,51.94
2023-09-09T09:12:45.655Z,52.09
2023-09-09T09:15:19.228Z,52.02
2023-09-09T09:17:53.875Z,51.61
2023-09-09T09:20:28.723Z,50.89
2023-09-09T09:23:05.825Z,51.37
2023-09-09T09:25:42.464Z,51.19
2023-09-09T09:28:17.363Z,51.15
2023-09-09T09:30:50.526Z,51.14
2023-09-09T09:33:25.573Z,51.21
2023-09-09T09:36:02.325Z,50.57
2023-09-09T09:38:39.325Z,50.92
2023-09-09T09:41:12.822Z,49.97
2023-09-09T09:43:47.277Z,48.88
2023-09-09T09:46:22.646Z,49.67
2023-09-09T09:48:55.836Z,49.94
2023-09-09T09:51:44.647Z,50.13
2023-09-09T09:54:19.918Z,50.52
2023-09-09T09:56:54.890Z,50.65
2023-09-09T09:59:31.970Z,50.70
2023-09-09T10:02:05.482Z,50.25
2023-09-09T10:04:43.424Z,49.98
2023-09-09T10:07:25.724Z,49.90
2023-09-09T10:10:08.957Z,50.55
2023-09-09T10:12:49.614Z,51.22
2023-09-09T10:15:23.761Z,51.00
2023-09-09T10:18:01.599Z,50.43
2023-09-09T10:20:37.903Z,50.29
2023-09-09T10:23:13.978Z,50.95
2023-09-09T10:25:50.103Z,50.97
2023-09-09T10:28:23.363Z,51.19
2023-09-09T10:30:58.088Z,50.76
2023-09-09T10:33:31.765Z,50.82
2023-09-09T10:36:06.050Z,49.83
2023-09-09T10:38:39.244Z,50.41
2023-09-09T10:41:15.126Z,49.15
2023-09-09T10:43:48.432Z,49.48
2023-09-09T10:46:33.933Z,48.75
2023-09-09T10:49:07.287Z,49.56
2023-09-09T10:51:51.455Z,50.11
2023-09-09T10:54:26.987Z,49.17
2023-09-09T10:57:04.133Z,47.88
2023-09-09T10:59:37.471Z,48.10
2023-09-09T11:02:14.841Z,47.98
2023-09-09T11:05:00.103Z,47.21
2023-09-09T11:07:41.128Z,46.96
2023-09-09T11:10:18.398Z,46.56
2023-09-09T11:13:00.056Z,46.45
2023-09-09T11:15:33.677Z,46.42
2023-09-09T11:18:07.906Z,47.36
2023-09-09T11:20:45.430Z,46.93
2023-09-09T11:23:18.942Z,46.36
2023-09-09T11:25:54.975Z,48.49
2023-09-09T11:28:31.506Z,48.44
2023-09-09T11:31:13.285Z,48.35
2023-09-09T11:33:47.178Z,47.13
2023-09-09T11:36:20.483Z,46.55
2023-09-09T11:38:55.133Z,46.61
2023-09-09T11:41:30.159Z,45.35
2023-09-09T11:44:06.714Z,45.73
2023-09-09T11:46:42.671Z,46.03
2023-09-09T11:49:18.336Z,46.40
2023-09-09T11:51:51.576Z,46.86
2023-09-09T11:54:24.829Z,47.33
2023-09-09T11:57:05.446Z,46.15
2023-09-09T11:59:51.245Z,45.44
2023-09-09T12:02:27.112Z,45.38
2023-09-09T12:05:02.833Z,46.02
2023-09-09T12:07:38.992Z,45.88
2023-09-09T12:10:15.923Z,45.33
2023-09-09T12:12:49.979Z,47.55
2023-09-09T12:15:25.762Z,47.25
2023-09-09T12:17:59.129Z,47.36
2023-09-09T12:20:32.411Z,46.37
2023-09-09T12:23:05.796Z,44.07
2023-09-09T12:25:39.201Z,42.91
2023-09-09T12:28:18.896Z,43.34
2023-09-09T12:30:53.804Z,44.94
2023-09-09T12:33:27.279Z,44.88
2023-09-09T12:36:01.092Z,44.91
2023-09-09T12:38:40.640Z,44.71
2023-09-09T12:41:14.244Z,43.10
2023-09-09T12:43:48.943Z,42.92
2023-09-09T12:46:28.787Z,43.25
2023-09-09T12:49:04.772Z,42.92
2023-09-09T12:51:37.904Z,41.64
2023-09-09T12:54:11.090Z,41.84
2023-09-09T12:56:44.551Z,42.46
2023-09-09T12:59:17.718Z,44.29
2023-09-09T13:01:53.420Z,44.25
2023-09-09T13:04:28.860Z,44.21
2023-09-09T13:07:02.138Z,43.69
2023-09-09T13:09:35.335Z,42.23
2023-09-09T13:12:08.961Z,41.20
2023-09-09T13:14:43.289Z,40.48
2023-09-09T13:17:17.914Z,41.80
2023-09-09T13:19:51.177Z,42.69
2023-09-09T13:22:24.404Z,42.14
2023-09-09T13:24:57.578Z,43.27
2023-09-09T13:27:30.771Z,42.72
2023-09-09T13:30:04.955Z,41.89
2023-09-09T13:32:41.600Z,42.50
2023-09-09T13:35:15.568Z,42.03
2023-09-09T13:37:48.785Z,42.78
2023-09-09T13:40:22.213Z,43.09
2023-09-09T13:42:55.588Z,42.49
2023-09-09T13:45:28.837Z,41.53
2023-09-09T13:48:03.478Z,41.67
2023-09-09T13:50:36.710Z,42.35
2023-09-09T13:53:09.916Z,40.69
2023-09-09T13:55:43.085Z,41.87
2023-09-09T13:58:18.588Z,42.89
2023-09-09T14:00:52.307Z,42.84
2023-09-09T14:03:27.033Z,43.99
2023-09-09T14:06:00.341Z,43.29
2023-09-09T14:08:33.531Z,44.00
2023-09-09T14:11:06.781Z,42.90
2023-09-09T14:13:40.054Z,43.97
2023-09-09T14:16:13.291Z,43.47
2023-09-09T14:18:47.926Z,43.09
2023-09-09T14:21:21.258Z,41.58
2023-09-09T14:23:55.159Z,41.97
2023-09-09T14:26:29.477Z,41.57
2023-09-09T14:29:02.621Z,44.01
2023-09-09T14:31:35.903Z,43.09
2023-09-09T14:34:10.559Z,42.94
2023-09-09T14:36:43.774Z,42.59
2023-09-09T14:39:16.987Z,42.30
2023-09-09T14:41:50.299Z,43.23
2023-09-09T14:44:26.031Z,42.08
2023-09-09T14:46:59.390Z,42.04
2023-09-09T14:49:35.626Z,41.74
2023-09-09T14:52:09.193Z,42.35
2023-09-09T14:54:42.553Z,42.13
2023-09-09T14:57:15.855Z,43.04
2023-09-09T14:59:49.142Z,42.70
2023-09-09T15:02:24.765Z,40.95
2023-09-09T15:04:59.351Z,42.94
2023-09-09T15:07:32.562Z,42.33
2023-09-09T15:10:06.338Z,42.24
2023-09-09T15:12:39.449Z,40.76
2023-09-09T15:15:13.083Z,40.82
2023-09-09T15:17:48.200Z,41.24
2023-09-09T15:20:24.358Z,40.95
2023-09-09T15:22:57.507Z,40.72
2023-09-09T15:25:32.363Z,41.84
2023-09-09T15:28:06.432Z,41.64
2023-09-09T15:30:39.621Z,42.90
2023-09-09T15:33:12.880Z,42.69
2023-09-09T15:35:47.469Z,42.55
2023-09-09T15:38:20.635Z,44.24
2023-09-09T15:40:54.032Z,44.63
2023-09-09T15:43:29.317Z,44.58
2023-09-09T15:46:03.750Z,44.71
2023-09-09T15:48:37.490Z,44.32
2023-09-09T15:51:12.304Z,45.06
2023-09-09T15:53:45.491Z,45.22
2023-09-09T15:56:18.692Z,44.92
2023-09-09T15:58:53.131Z,45.88
2023-09-09T16:01:26.530Z,46.01
2023-09-09T16:03:59.992Z,46.79
2023-09-09T16:06:34.614Z,47.50
2023-09-09T16:09:07.842Z,47.75
2023-09-09T16:11:41.019Z,48.42
2023-09-09T16:14:14.947Z,48.76
2023-09-09T16:16:48.107Z,48.62
2023-09-09T16:19:21.283Z,48.52
2023-09-09T16:21:58.170Z,48.52
2023-09-09T16:24:31.389Z,48.39
2023-09-09T16:27:04.731Z,49.03
2023-09-09T16:29:38.002Z,49.73
2023-09-09T16:32:11.232Z,49.87
2023-09-09T16:34:44.644Z,49.21
2023-09-09T16:37:19.390Z,49.59
2023-09-09T16:39:52.694Z,49.75
2023-09-09T16:42:25.892Z,49.74
2023-09-09T16:44:59.036Z,49.77
2023-09-09T16:47:32.172Z,49.53
2023-09-09T16:50:05.721Z,50.18
2023-09-09T16:52:41.047Z,50.59
2023-09-09T16:55:14.531Z,50.88
2023-09-09T16:57:47.692Z,50.60
2023-09-09T17:00:21.280Z,50.32
2023-09-09T17:02:54.543Z,50.93
2023-09-09T17:05:28.047Z,51.25
2023-09-09T17:08:04.328Z,51.22
2023-09-09T17:10:37.661Z,51.20
2023-09-09T17:13:10.832Z,52.15
2023-09-09T17:15:44.760Z,52.85
2023-09-09T17:18:17.989Z,53.73
2023-09-09T17:20:51.556Z,54.69
2023-09-09T17:23:26.226Z,55.17
2023-09-09T17:26:01.510Z,54.67
2023-09-09T17:28:34.740Z,54.39
2023-09-09T17:31:09.947Z,54.04
2023-09-09T17:33:43.244Z,55.36
2023-09-09T17:36:16.538Z,55.93
2023-09-09T17:39:06.595Z,56.08
2023-09-09T17:41:39.897Z,57.11
2023-09-09T17:44:13.237Z,57.63
2023-09-09T17:46:46.445Z,58.21
2023-09-09T17:49:23.250Z,58.81
2023-09-09T17:51:56.679Z,58.81
2023-09-09T17:54:31.312Z,59.13
2023-09-09T17:57:04.725Z,59.52
2023-09-09T17:59:38.453Z,59.86
2023-09-09T18:02:11.614Z,60.50
2023-09-09T18:04:44.849Z,61.33
2023-09-09T18:07:18.085Z,62.19
2023-09-09T18:09:52.722Z,63.52
2023-09-09T18:12:25.839Z,63.49
2023-09-09T18:14:59.039Z,65.23
2023-09-09T18:17:32.399Z,65.51
2023-09-09T18:20:06.517Z,66.63
2023-09-09T18:22:40.099Z,67.78
2023-09-09T18:25:14.873Z,68.85
2023-09-09T18:27:49.484Z,69.58
2023-09-09T18:30:24.557Z,70.19
2023-09-09T18:33:00.251Z,70.44
2023-09-09T18:35:33.473Z,70.07
2023-09-09T18:38:06.715Z,70.17
2023-09-09T18:40:41.429Z,70.19
2023-09-09T18:43:14.776Z,70.56
2023-09-09T18:45:48.734Z,71.07
2023-09-09T18:48:22.138Z,71.82
2023-09-09T18:50:55.378Z,72.27
2023-09-09T18:53:28.660Z,72.49
2023-09-09T18:56:03.294Z,72.33
2023-09-09T18:58:36.892Z,72.40
2023-09-09T19:01:10.551Z,72.67
2023-09-09T19:03:43.937Z,73.32
2023-09-09T19:06:17.163Z,73.92
2023-09-09T19:08:50.309Z,73.55
2023-09-09T19:11:24.814Z,73.87
2023-09-09T19:13:58.127Z,73.43
2023-09-09T19:16:31.383Z,73.64
2023-09-09T19:19:04.714Z,73.66
2023-09-09T19:21:37.903Z,73.88
2023-09-09T19:24:13.442Z,74.37
2023-09-09T19:26:47.957Z,75.09
2023-09-09T19:29:21.106Z,74.84
2023-09-09T19:31:56.038Z,74.39
2023-09-09T19:34:31.507Z,74.65
2023-09-09T19:37:04.773Z,75.33
2023-09-09T19:39:37.926Z,76.13
2023-09-09T19:42:12.442Z,76.26
2023-09-09T19:44:45.793Z,76.69
2023-09-09T19:47:19.060Z,76.70
2023-09-09T19:49:54.227Z,76.35
2023-09-09T19:52:27.554Z,76.14
2023-09-09T19:55:00.741Z,76.20
2023-09-09T19:57:35.310Z,76.61
2023-09-09T20:00:09.931Z,76.58
2023-09-09T20:02:43.238Z,76.65
2023-09-09T20:05:16.608Z,76.73
2023-09-09T20:07:52.319Z,76.82
2023-09-09T20:10:25.569Z,76.82
2023-09-09T20:13:00.120Z,77.50
2023-09-09T20:15:38.496Z,77.70
2023-09-09T20:18:11.803Z,77.82
2023-09-09T20:20:45.052Z,77.81
2023-09-09T20:23:18.298Z,77.88
2023-09-09T20:25:51.675Z,77.84
2023-09-09T20:28:27.634Z,77.85
2023-09-09T20:31:00.790Z,77.85
2023-09-09T20:33:34.093Z,77.86
2023-09-09T20:36:08.382Z,77.72
2023-09-09T20:38:41.844Z,77.68
2023-09-09T20:41:15.223Z,77.74
2023-09-09T20:43:49.889Z,77.74
2023-09-09T20:46:23.275Z,78.08
2023-09-09T20:48:56.464Z,78.10
2023-09-09T20:51:29.593Z,78.49
2023-09-09T20:54:03.398Z,79.13
2023-09-09T20:56:36.590Z,79.66
2023-09-09T20:59:11.193Z,80.15
2023-09-09T21:01:45.347Z,80.45
2023-09-09T21:04:18.734Z,80.30
2023-09-09T21:06:52.025Z,80.11
2023-09-09T21:09:25.168Z,80.40
2023-09-09T21:11:58.470Z,80.11
2023-09-09T21:14:33.521Z,80.17
2023-09-09T21:17:06.680Z,80.26
2023-09-09T21:19:39.956Z,80.37
2023-09-09T21:22:13.802Z,79.91
2023-09-09T21:24:46.987Z,80.02
2023-09-09T21:27:20.170Z,80.25
2023-09-09T21:29:54.746Z,80.41
2023-09-09T21:32:28.112Z,80.14
2023-09-09T21:35:01.402Z,80.26
2023-09-09T21:37:34.631Z,80.23
2023-09-09T21:40:09.465Z,80.45
2023-09-09T21:42:43.129Z,80.56
2023-09-09T21:45:17.824Z,80.49
2023-09-09T21:47:51.044Z,80.33
2023-09-09T21:50:24.935Z,80.55
2023-09-09T21:52:58.410Z,80.65
2023-09-09T21:55:31.655Z,80.47
2023-09-09T21:58:05.291Z,80.38
2023-09-09T22:00:39.919Z,80.11
2023-09-09T22:03:13.125Z,79.98
2023-09-09T22:05:46.375Z,79.94
2023-09-09T22:08:20.983Z,79.96
2023-09-09T22:10:54.426Z,80.41
2023-09-09T22:13:27.649Z,80.43
2023-09-09T22:16:02.343Z,80.56
2023-09-09T22:18:35.552Z,80.49
2023-09-09T22:21:09.357Z,80.58
2023-09-09T22:23:42.550Z,80.98
2023-09-09T22:26:25.994Z,81.05
2023-09-09T22:29:00.290Z,81.50
2023-09-09T22:31:34.848Z,81.90
2023-09-09T22:34:08.057Z,81.72
2023-09-09T22:36:41.281Z,81.48
2023-09-09T22:39:14.900Z,81.25
2023-09-09T22:41:48.127Z,81.04
2023-09-09T22:44:21.346Z,80.91
2023-09-09T22:46:56.039Z,80.70
2023-09-09T22:49:29.235Z,80.72
2023-09-09T22:52:02.468Z,80.27
2023-09-09T22:54:35.655Z,80.24
2023-09-09T22:57:08.894Z,80.09
2023-09-09T22:59:42.247Z,80.34
2023-09-09T23:02:17.009Z,80.24
2023-09-09T23:04:51.259Z,80.20
2023-09-09T23:07:25.456Z,80.46
2023-09-09T23:09:59.511Z,80.53
2023-09-09T23:12:33.271Z,80.68
2023-09-09T23:15:07.726Z,80.66
2023-09-09T23:17:42.481Z,81.04
2023-09-09T23:20:15.833Z,80.85
2023-09-09T23:22:49.809Z,80.81
2023-09-09T23:25:23.460Z,80.97
2023-09-09T23:27:56.793Z,80.37
2023-09-09T23:30:31.164Z,80.72
2023-09-09T23:33:06.044Z,80.99
2023-09-09T23:35:39.322Z,80.85
2023-09-09T23:38:12.925Z,80.81
2023-09-09T23:40:46.352Z,80.81
2023-09-09T23:43:20.064Z,80.79
2023-09-09T23:45:53.506Z,80.52
2023-09-09T23:48:28.118Z,80.67
2023-09-09T23:51:01.950Z,80.61
2023-09-09T23:53:35.150Z,80.74
2023-09-09T23:56:08.617Z,81.05
2023-09-09T23:58:42.120Z,80.87
